Share

Vossburg, MS (39366)

Amateur Station KF5MWE (KMSQUITM3) Elev 256 ft | 32.05 °N, 88.72 °W | Change Station

Current weather conditions updated 1 second ago

Clear
Clear
53.1 °F
Feels Like 53.1 °F
N
0.0
Wind Variable Wind from NE
Gusts 0.0 mph
Sunrise 6:22 AM
Sunset 7:27 PM
Moon Waning Gibbous

Tomorrow is forecast to be Cooler than today.

Pressure 30.14 in
Visibility 10.0 miles
Clouds Clear
Dew Point 52 °F
Humidity 98%
Rainfall 0.17 in
Snow Depth Not available.
UV 0 out of 16
Pollen 8.40 out of 12
Air Quality Not available.
Flu Activity No Activity
METAR KMEI 200358Z AUTO 00000KT 10SM CLR 13/11 A3014 RMK AO2 SLP204 T01280111

More Conditions Fewer Conditions

Pressure 30.14 in
Visibility 10.0 miles
Clouds Clear
Dew Point 52 °F
Humidity 98%
Rainfall 0.17 in
Snow Depth Not available.
UV 0 out of 16
Pollen 8.40 out of 12
Air Quality Not available.
Flu Activity No Activity
METAR KMEI 200358Z AUTO 00000KT 10SM CLR 13/11 A3014 RMK AO2 SLP204 T01280111

More Conditions Fewer Conditions

10-Day Weather Forecast

Almanac

Astronomy

Apr. 19, 2014 Rise Set
Actual Time 6:22 AM CDT 7:27 PM CDT
Civil Twilight 5:57 AM CDT 7:53 PM CDT
Nautical Twilight 5:27 AM CDT 8:23 PM CDT
Astronomical Twilight 4:56 AM CDT 8:54 PM CDT
Moon No Moon Rise 9:48 AM CDT (4/19)
Length of Visible Light 13h 56m
Length of Day
13h 05m
Tomorrow will be 1m 49s longer.
Waning Gibbous, 73% of the Moon is Illuminated
Apr 20
Waning Gibbous
Apr 22
Last Quarter
Apr 29
New
May 6
First Quarter
May 14
Full

Yesterday's Extremes

State Highs State Lows

Community

  • Sunny day at the coast-Cape Arago Lighthouse
    Sunny day at the coast-Cape Arago Lighthouse
  • Cherry Blossoms
    Cherry Blossoms
  • White-Crowned Sparrow
    White-Crowned Sparrow
  • New Day
    New Day
  • Happy Easter!
    Happy Easter!

WunderPhotos

Upload Photos

1,703,081 photos uploaded!

WunderBlogs® & News

Nearby

Snow Depth

Station Depth Elevation
No new snow has been reported.

Coastal Water Temperatures

Place Temperature
No Stations Reporting

Earthquake Activity

City Distance Mag. Time & Date
No recent earthquake activity has been reported nearby.
Minimum magnitude displayed is 2.5.

Nearby Weather Stations

Station Location Temp. Dew Point Humidity Wind Precip. Elev Updated Type
Amateur Station KF5MWE, Quitman, MS 53.1 °F 52 °F 98% NE  at  0.0 mph 0.00 in / hr 256 ft 11:53 PM CDT Rapid Fire

Show More Stations Show Fewer Stations

What do you think?

We're not finished. Please let us know what you like, what you don't like, and what you are still missing.